CFZ5 weather

Sundre / Goodwins Farm Airport
Sundre, Alberta, Canada

Public forecast

Using degrees Celsius for public forecast. Weather courtesy of forecast.io.

Closest aviation weather report (METAR) to Sundre / Goodwins Farm Airport

Closest report is Red Deer Regional Airport, 38.9 nm (72.1 km) NE. Retrieved 2020/04/04 09:00 UTC (6 minutes ago):

CYQF 040900Z 02007KT 15SM -SN OVC032 M12/M14 A2991 RMK SC8 SLP192

Closest aviation forecast (TAF) to Sundre / Goodwins Farm Airport

Closest forecast is Red Deer Regional Airport, 38.9 nm (72.1 km) NE. Retrieved 2020/04/04 06:39 UTC (2 hours ago):

TAF CYQF 040538Z 0406/0418 03008KT P6SM OVC030 TEMPO 0406/0412 4SM -SN OVC020 FM041200 35006KT P6SM -SN OVC020 TEMPO 0412/0417 2SM -SN OVC008 FM041700 12008KT P6SM SCT020 TEMPO 0417/0418 BKN020 RMK NXT FCST BY 041200Z